Time;durP1;ratioP1;P1;durP2;ratioP2;P2;SDS_P1;SDS_P2;PMS_P1;PMS_P2;Temp;Humidity;BMP_temperature;BMP_pressure;BME280_temperature;BME280_humidity;BME280_pressure;Samples;Min_cycle;Max_cycle;Signal;HPM_P1;HPM_P2
2022/07/18 00:01:59;;;;;;;0.40;0.30;;;18.90;87.70;;;;;;5029655;28;20390;-69
2022/07/18 00:04:26;;;;;;;0.40;0.20;;;18.80;88.60;;;;;;5030135;28;20907;-68
2022/07/18 00:06:52;;;;;;;0.40;0.30;;;18.90;88.80;;;;;;5029927;28;20479;-69
2022/07/18 00:09:18;;;;;;;0.50;0.40;;;18.90;89.30;;;;;;5030171;28;20411;-69
2022/07/18 00:11:44;;;;;;;0.50;0.40;;;18.90;90.60;;;;;;5010902;28;20417;-70
2022/07/18 00:14:10;;;;;;;0.40;0.30;;;18.70;90.70;;;;;;4991919;28;21147;-69
2022/07/18 00:16:36;;;;;;;0.40;0.40;;;18.70;91.00;;;;;;5010360;28;20387;-69
2022/07/18 00:19:03;;;;;;;0.40;0.20;;;18.70;90.90;;;;;;5009479;28;20393;-69
2022/07/18 00:21:29;;;;;;;0.40;0.28;;;18.70;91.20;;;;;;5010053;28;20854;-69
2022/07/18 00:23:55;;;;;;;0.65;0.45;;;18.60;90.80;;;;;;5009868;28;20381;-69
2022/07/18 00:26:20;;;;;;;0.40;0.30;;;18.50;90.20;;;;;;5010374;28;20396;-69
2022/07/18 00:28:46;;;;;;;0.40;0.30;;;18.50;89.50;;;;;;5009481;28;20467;-69
2022/07/18 00:31:12;;;;;;;0.40;0.27;;;18.50;90.20;;;;;;5009493;28;20420;-69
2022/07/18 00:33:38;;;;;;;0.40;0.30;;;18.40;88.70;;;;;;5010050;28;20381;-69
2022/07/18 00:36:05;;;;;;;0.40;0.30;;;18.40;89.10;;;;;;5009704;28;20380;-69
2022/07/18 00:38:31;;;;;;;0.40;0.20;;;18.40;90.50;;;;;;5009763;28;20400;-69
2022/07/18 00:40:57;;;;;;;0.40;0.30;;;18.40;90.30;;;;;;5011765;28;20925;-70
2022/07/18 00:43:22;;;;;;;0.40;0.30;;;18.40;89.70;;;;;;5018766;28;20775;-69
2022/07/18 00:45:49;;;;;;;0.40;0.20;;;18.40;89.70;;;;;;5009253;28;20660;-69
2022/07/18 00:48:15;;;;;;;0.40;0.30;;;18.40;90.30;;;;;;5009439;28;21165;-68
2022/07/18 00:50:43;;;;;;;0.40;0.20;;;18.40;90.50;;;;;;5009443;28;20706;-68
2022/07/18 00:53:12;;;;;;;0.40;0.20;;;18.30;90.10;;;;;;5008939;28;20926;-68
2022/07/18 00:55:40;;;;;;;0.40;0.30;;;18.40;90.20;;;;;;5009465;28;20393;-69
2022/07/18 00:58:09;;;;;;;0.40;0.20;;;18.30;89.50;;;;;;5008588;28;20789;-68
2022/07/18 01:03:20;;;;;;;0.40;0.30;;;18.30;90.40;;;;;;5009610;28;20426;-68
2022/07/18 01:05:46;;;;;;;0.73;0.65;;;18.30;91.30;;;;;;5009579;28;20764;-69
2022/07/18 01:08:12;;;;;;;0.60;0.60;;;18.20;90.70;;;;;;5008813;28;20775;-69
2022/07/18 01:10:38;;;;;;;0.50;0.50;;;18.20;91.30;;;;;;5009413;28;20412;-68
2022/07/18 01:13:03;;;;;;;0.40;0.20;;;18.10;91.40;;;;;;5021424;28;20724;-69
2022/07/18 01:15:29;;;;;;;0.40;0.40;;;18.10;92.20;;;;;;5028959;28;20387;-69
2022/07/18 01:17:55;;;;;;;0.40;0.20;;;18.10;92.00;;;;;;5028304;28;20402;-69
2022/07/18 01:20:21;;;;;;;0.40;0.28;;;18.00;93.80;;;;;;5029158;28;20772;-69
2022/07/18 01:22:47;;;;;;;0.40;0.30;;;18.00;93.20;;;;;;5028795;28;20419;-69
2022/07/18 01:25:16;;;;;;;0.40;0.20;;;17.90;93.10;;;;;;5028056;28;20425;-68
2022/07/18 01:27:42;;;;;;;0.40;0.30;;;17.80;93.50;;;;;;5028974;28;20415;-68
2022/07/18 01:30:08;;;;;;;0.40;0.30;;;17.80;92.60;;;;;;5028172;28;20418;-69
2022/07/18 01:32:34;;;;;;;0.50;0.50;;;17.70;92.80;;;;;;5028245;28;20387;-69
2022/07/18 01:34:59;;;;;;;0.50;0.50;;;17.80;92.90;;;;;;5027474;28;20386;-69
2022/07/18 01:37:25;;;;;;;0.40;0.30;;;17.80;93.70;;;;;;5028367;28;20438;-69
2022/07/18 01:39:51;;;;;;;0.40;0.30;;;17.70;93.40;;;;;;5028844;28;20380;-68
2022/07/18 01:42:17;;;;;;;0.40;0.30;;;17.80;92.80;;;;;;5027831;28;20736;-68
2022/07/18 01:44:43;;;;;;;0.40;0.30;;;17.70;93.70;;;;;;5028304;28;20383;-69
2022/07/18 01:47:10;;;;;;;0.40;0.30;;;17.70;92.90;;;;;;5027734;28;20798;-69
2022/07/18 01:49:37;;;;;;;0.40;0.20;;;17.60;93.10;;;;;;5027900;28;20383;-69
2022/07/18 01:52:03;;;;;;;0.40;0.20;;;17.60;93.50;;;;;;5027630;28;20375;-69
2022/07/18 01:54:31;;;;;;;0.40;0.30;;;17.50;93.90;;;;;;5028492;28;20383;-70
2022/07/18 01:56:58;;;;;;;0.40;0.30;;;17.50;93.80;;;;;;5027414;28;20469;-68
2022/07/18 01:59:24;;;;;;;0.40;0.20;;;17.60;94.10;;;;;;5028166;28;20416;-68
2022/07/18 02:01:50;;;;;;;0.40;0.30;;;17.50;93.40;;;;;;5027756;28;20430;-68
2022/07/18 02:04:16;;;;;;;0.40;0.20;;;17.60;93.40;;;;;;5027435;28;21014;-69
2022/07/18 02:06:43;;;;;;;0.40;0.20;;;17.60;94.00;;;;;;5010371;28;20875;-68
2022/07/18 02:09:09;;;;;;;0.40;0.30;;;17.50;93.60;;;;;;5027491;28;20410;-69
2022/07/18 02:11:35;;;;;;;0.40;0.20;;;17.50;93.50;;;;;;5009603;28;20379;-68
2022/07/18 02:14:02;;;;;;;0.70;0.60;;;17.50;94.30;;;;;;5007348;28;20389;-69
2022/07/18 02:16:28;;;;;;;0.40;0.20;;;17.50;95.30;;;;;;4990410;28;20825;-68
2022/07/18 02:18:55;;;;;;;0.40;0.30;;;17.40;94.80;;;;;;4990275;28;20487;-68
2022/07/18 02:21:20;;;;;;;0.50;0.50;;;17.40;94.00;;;;;;5007753;28;20520;-69
2022/07/18 02:23:46;;;;;;;0.40;0.27;;;17.20;95.00;;;;;;5007904;28;20464;-69
2022/07/18 02:26:12;;;;;;;0.50;0.50;;;17.20;94.90;;;;;;5007371;28;20423;-69
2022/07/18 02:28:38;;;;;;;0.40;0.20;;;17.20;95.30;;;;;;5007949;28;20412;-68
2022/07/18 02:31:04;;;;;;;0.50;0.30;;;17.20;95.30;;;;;;5007373;28;20393;-68
2022/07/18 02:33:30;;;;;;;0.40;0.20;;;17.10;96.80;;;;;;5008020;28;20377;-70
2022/07/18 02:35:56;;;;;;;0.50;0.40;;;17.20;95.80;;;;;;5008046;28;20418;-69
2022/07/18 02:38:21;;;;;;;0.40;0.30;;;17.20;96.40;;;;;;5007613;28;20471;-68
2022/07/18 02:40:47;;;;;;;0.40;0.30;;;17.20;96.90;;;;;;5008079;28;20465;-69
2022/07/18 02:43:14;;;;;;;0.43;0.38;;;17.20;96.30;;;;;;5007241;28;21230;-68
2022/07/18 02:45:40;;;;;;;0.50;0.50;;;17.10;96.50;;;;;;5007488;28;20428;-68
2022/07/18 02:48:05;;;;;;;0.40;0.20;;;17.10;96.70;;;;;;5007430;28;20440;-68
2022/07/18 02:50:31;;;;;;;0.40;0.20;;;17.10;95.60;;;;;;4989994;28;20412;-68
2022/07/18 02:52:57;;;;;;;0.40;0.30;;;17.10;95.10;;;;;;5008080;28;20750;-68
2022/07/18 02:55:23;;;;;;;0.40;0.30;;;17.10;95.50;;;;;;5007203;28;20475;-69
2022/07/18 02:57:49;;;;;;;0.40;0.30;;;17.20;95.70;;;;;;5008237;28;20463;-69
2022/07/18 03:00:16;;;;;;;3.20;1.00;;;17.20;95.70;;;;;;5007466;28;20380;-69
2022/07/18 03:02:42;;;;;;;0.40;0.20;;;17.10;96.00;;;;;;5009955;28;20420;-68
2022/07/18 03:05:09;;;;;;;0.40;0.30;;;17.10;96.30;;;;;;5010647;28;20372;-69
2022/07/18 03:07:34;;;;;;;0.40;0.20;;;17.10;96.70;;;;;;5011251;28;20519;-68
2022/07/18 03:10:00;;;;;;;0.40;0.30;;;17.00;97.10;;;;;;5011547;28;20479;-68
2022/07/18 03:12:26;;;;;;;0.40;0.30;;;16.90;98.00;;;;;;5019171;28;20395;-69
2022/07/18 03:14:52;;;;;;;0.40;0.30;;;16.90;97.20;;;;;;5013786;28;20437;-68
2022/07/18 03:17:17;;;;;;;0.40;0.30;;;16.90;96.90;;;;;;5030898;28;20880;-68
2022/07/18 03:19:43;;;;;;;0.40;0.30;;;16.90;96.20;;;;;;5031309;28;20458;-68
2022/07/18 03:22:09;;;;;;;0.40;0.20;;;17.10;96.20;;;;;;5030009;28;20390;-69
2022/07/18 03:24:35;;;;;;;0.40;0.30;;;17.20;96.00;;;;;;5031133;28;20474;-69
2022/07/18 03:27:01;;;;;;;0.40;0.30;;;17.10;95.80;;;;;;5030871;28;20438;-68
2022/07/18 03:29:27;;;;;;;0.40;0.20;;;17.10;94.90;;;;;;5030769;28;20407;-68
2022/07/18 03:31:53;;;;;;;0.40;0.20;;;17.20;95.10;;;;;;5030921;28;20394;-68
2022/07/18 03:34:18;;;;;;;0.40;0.30;;;17.20;94.90;;;;;;5012633;28;20391;-68
2022/07/18 03:36:44;;;;;;;0.40;0.20;;;17.20;94.50;;;;;;5030584;28;20407;-68
2022/07/18 03:39:10;;;;;;;0.40;0.20;;;17.10;95.10;;;;;;5030366;28;20840;-68
2022/07/18 03:41:37;;;;;;;0.40;0.30;;;17.10;95.70;;;;;;5031260;28;20432;-68
2022/07/18 03:44:03;;;;;;;0.40;0.20;;;17.10;94.90;;;;;;5030776;28;20476;-70
2022/07/18 03:46:29;;;;;;;0.40;0.30;;;17.10;94.30;;;;;;5013146;28;20860;-69
2022/07/18 03:48:55;;;;;;;0.40;0.20;;;17.20;94.00;;;;;;5031214;28;20494;-69
2022/07/18 03:51:21;;;;;;;0.60;0.50;;;17.10;94.40;;;;;;5030389;28;20562;-68
2022/07/18 03:53:47;;;;;;;0.40;0.30;;;16.90;94.80;;;;;;5030509;28;20371;-69
2022/07/18 03:56:12;;;;;;;0.40;0.30;;;16.90;95.10;;;;;;5029929;28;20395;-70
2022/07/18 03:58:38;;;;;;;0.40;0.30;;;16.90;94.70;;;;;;5008923;28;20436;-69
2022/07/18 04:01:04;;;;;;;0.40;0.30;;;16.90;95.70;;;;;;5010544;28;20387;-70
2022/07/18 04:03:30;;;;;;;0.50;0.40;;;16.70;97.30;;;;;;5010825;28;20427;-68
2022/07/18 04:05:56;;;;;;;0.40;0.32;;;16.70;96.70;;;;;;5011030;28;20900;-69
2022/07/18 04:08:22;;;;;;;0.40;0.20;;;16.70;96.70;;;;;;5010589;28;20769;-69
2022/07/18 04:10:47;;;;;;;0.50;0.30;;;16.70;96.90;;;;;;5010607;28;20428;-69
2022/07/18 04:13:13;;;;;;;0.40;0.30;;;16.60;97.30;;;;;;4996072;28;20458;-69
2022/07/18 04:15:40;;;;;;;0.90;0.40;;;16.80;96.20;;;;;;4989715;28;20881;-69
2022/07/18 04:18:06;;;;;;;0.40;0.30;;;17.00;95.90;;;;;;4990577;28;20421;-70
2022/07/18 04:20:32;;;;;;;0.98;0.75;;;17.00;95.00;;;;;;4990990;28;20881;-68
2022/07/18 04:23:02;;;;;;;0.40;0.30;;;17.00;94.80;;;;;;4990866;28;20386;-69
2022/07/18 04:25:32;;;;;;;0.40;0.30;;;16.90;95.20;;;;;;4990180;28;20789;-69
2022/07/18 04:27:58;;;;;;;0.40;0.22;;;16.90;95.20;;;;;;4991263;28;20425;-69
2022/07/18 04:30:26;;;;;;;0.40;0.20;;;16.90;95.40;;;;;;4990256;28;20871;-68
2022/07/18 04:32:53;;;;;;;0.40;0.30;;;16.90;95.20;;;;;;4990689;28;20897;-68
2022/07/18 04:35:18;;;;;;;0.40;0.20;;;16.90;94.80;;;;;;4990619;28;20541;-68
2022/07/18 04:37:44;;;;;;;0.40;0.30;;;16.80;96.80;;;;;;4991380;28;20482;-68
2022/07/18 04:40:11;;;;;;;0.40;0.20;;;16.90;96.50;;;;;;4990586;28;20751;-69
2022/07/18 04:42:37;;;;;;;0.55;0.47;;;16.90;95.70;;;;;;4994482;28;20402;-68
2022/07/18 04:45:05;;;;;;;0.40;0.20;;;16.90;95.60;;;;;;4999931;28;20389;-69
2022/07/18 04:47:30;;;;;;;0.40;0.30;;;16.90;97.40;;;;;;4999135;28;20406;-68
2022/07/18 04:49:56;;;;;;;0.40;0.30;;;16.90;96.20;;;;;;4991810;28;20399;-69
2022/07/18 04:52:22;;;;;;;0.40;0.20;;;16.90;97.50;;;;;;4989707;28;20457;-68
2022/07/18 04:54:48;;;;;;;0.40;0.30;;;17.00;95.40;;;;;;4990306;28;20473;-69
2022/07/18 04:57:14;;;;;;;0.50;0.50;;;17.10;95.00;;;;;;5005986;28;20474;-69
2022/07/18 04:59:41;;;;;;;0.40;0.20;;;17.20;94.50;;;;;;5022354;28;20416;-69
2022/07/18 05:02:08;;;;;;;0.50;0.47;;;17.30;94.40;;;;;;5018339;28;20486;-68
2022/07/18 05:04:34;;;;;;;0.40;0.20;;;17.30;94.20;;;;;;5025453;28;20426;-70
2022/07/18 05:06:59;;;;;;;0.40;0.20;;;17.30;95.00;;;;;;5022090;28;20429;-71
2022/07/18 05:09:26;;;;;;;0.40;0.30;;;17.40;94.80;;;;;;5004283;28;20493;-70
2022/07/18 05:11:52;;;;;;;0.40;0.20;;;17.60;96.70;;;;;;5016698;28;20407;-71
2022/07/18 05:14:17;;;;;;;0.50;0.40;;;17.60;95.60;;;;;;4998690;28;20783;-71
2022/07/18 05:16:43;;;;;;;0.40;0.27;;;17.50;94.50;;;;;;5015419;28;20401;-70
2022/07/18 05:19:09;;;;;;;0.60;0.60;;;17.60;94.60;;;;;;5017377;28;20747;-71
2022/07/18 05:21:35;;;;;;;0.40;0.30;;;17.50;95.50;;;;;;5027973;28;20482;-70
2022/07/18 05:24:01;;;;;;;0.40;0.20;;;17.60;96.70;;;;;;5022420;28;20822;-70
2022/07/18 05:26:26;;;;;;;0.40;0.30;;;17.70;94.30;;;;;;5008553;28;20821;-70
2022/07/18 05:28:52;;;;;;;0.40;0.30;;;17.80;94.00;;;;;;5008399;28;20889;-70
2022/07/18 05:31:18;;;;;;;0.40;0.30;;;17.80;94.80;;;;;;5019577;28;20409;-70
2022/07/18 05:33:43;;;;;;;0.40;0.30;;;18.00;96.20;;;;;;5026588;28;20466;-70
2022/07/18 05:36:09;;;;;;;0.40;0.20;;;18.00;97.60;;;;;;5028212;28;20423;-70
2022/07/18 05:38:35;;;;;;;0.40;0.30;;;18.00;99.30;;;;;;5027478;28;20399;-70
2022/07/18 05:41:01;;;;;;;0.50;0.40;;;18.10;98.00;;;;;;5026419;28;20395;-72
2022/07/18 05:43:27;;;;;;;0.40;0.20;;;18.30;93.90;;;;;;4990504;28;20393;-71
2022/07/18 05:45:52;;;;;;;0.40;0.20;;;18.30;97.00;;;;;;5008542;28;20472;-70
2022/07/18 05:48:18;;;;;;;0.40;0.20;;;18.40;97.40;;;;;;5007306;28;20408;-70
2022/07/18 05:50:44;;;;;;;0.40;0.20;;;18.40;98.90;;;;;;5008654;28;20389;-70
2022/07/18 05:53:11;;;;;;;1.15;1.05;;;18.50;94.40;;;;;;5008098;28;20385;-70
2022/07/18 05:55:37;;;;;;;0.40;0.30;;;18.60;97.30;;;;;;5008166;28;20393;-70
2022/07/18 05:58:03;;;;;;;0.40;0.30;;;18.60;95.80;;;;;;5007975;28;20412;-71
2022/07/18 06:00:29;;;;;;;0.40;0.20;;;18.80;92.30;;;;;;5007520;28;20471;-70
2022/07/18 06:02:56;;;;;;;0.40;0.40;;;18.80;95.10;;;;;;5008415;28;20927;-71
2022/07/18 06:05:21;;;;;;;0.40;0.30;;;19.00;91.10;;;;;;5006951;28;20855;-71
2022/07/18 06:07:47;;;;;;;0.50;0.50;;;19.20;91.00;;;;;;5008017;28;20424;-70
2022/07/18 06:10:13;;;;;;;0.50;0.40;;;19.30;91.60;;;;;;5007872;28;20408;-72
2022/07/18 06:12:39;;;;;;;0.40;0.20;;;19.30;92.80;;;;;;5016752;28;20383;-71
2022/07/18 06:15:07;;;;;;;0.40;0.30;;;19.40;91.10;;;;;;5027728;28;20470;-70
2022/07/18 06:17:33;;;;;;;0.50;0.40;;;19.40;92.60;;;;;;5026770;28;20383;-70
2022/07/18 06:19:59;;;;;;;0.40;0.20;;;19.50;90.50;;;;;;5027744;28;20467;-71
2022/07/18 06:22:25;;;;;;;0.40;0.30;;;19.50;89.30;;;;;;5027105;28;20430;-70
2022/07/18 06:24:51;;;;;;;0.40;0.20;;;19.60;88.20;;;;;;5027574;28;20395;-71
2022/07/18 06:27:16;;;;;;;0.40;0.22;;;19.70;86.00;;;;;;5027353;28;20406;-72
2022/07/18 06:29:42;;;;;;;0.40;0.20;;;19.90;82.60;;;;;;5027255;28;20772;-70
2022/07/18 06:32:08;;;;;;;0.40;0.20;;;20.00;80.80;;;;;;5027770;28;20466;-69
2022/07/18 06:34:33;;;;;;;0.40;0.30;;;20.30;80.70;;;;;;5026964;28;20521;-70
2022/07/18 06:36:59;;;;;;;0.40;0.20;;;20.60;79.30;;;;;;5027697;28;20514;-70
2022/07/18 06:39:25;;;;;;;0.40;0.30;;;20.90;79.40;;;;;;5026840;28;20389;-70
2022/07/18 06:41:50;;;;;;;0.40;0.20;;;20.90;79.50;;;;;;5027172;28;20402;-71
2022/07/18 06:44:16;;;;;;;0.40;0.40;;;20.90;80.10;;;;;;5009279;28;20399;-72
2022/07/18 06:46:42;;;;;;;0.50;0.40;;;21.10;78.90;;;;;;5027326;28;20418;-71
2022/07/18 06:49:08;;;;;;;0.40;0.30;;;21.20;79.10;;;;;;5027409;28;20493;-70
2022/07/18 06:51:34;;;;;;;0.40;0.30;;;21.20;79.90;;;;;;5016101;28;21064;-71
2022/07/18 06:54:01;;;;;;;0.40;0.27;;;21.20;79.10;;;;;;5017819;28;20469;-70
2022/07/18 06:56:26;;;;;;;0.40;0.30;;;21.10;79.70;;;;;;5012871;28;20392;-70
2022/07/18 06:58:52;;;;;;;0.40;0.30;;;21.30;79.10;;;;;;5023705;28;20768;-70
2022/07/18 07:01:20;;;;;;;0.40;0.30;;;21.50;77.90;;;;;;5010178;28;20915;-72
2022/07/18 07:03:46;;;;;;;0.40;0.30;;;21.50;77.50;;;;;;5022579;28;20384;-71
2022/07/18 07:06:15;;;;;;;0.40;0.30;;;21.60;77.10;;;;;;5016271;28;20474;-71
2022/07/18 07:08:41;;;;;;;0.40;0.40;;;21.70;77.60;;;;;;5015177;28;20928;-72
2022/07/18 07:11:07;;;;;;;0.40;0.30;;;21.60;78.30;;;;;;5008825;28;20528;-71
2022/07/18 07:13:33;;;;;;;0.40;0.25;;;21.60;76.70;;;;;;5010817;28;20541;-71
2022/07/18 07:15:59;;;;;;;0.40;0.30;;;21.70;77.30;;;;;;5027366;28;20444;-71
2022/07/18 07:18:24;;;;;;;0.40;0.30;;;21.90;76.60;;;;;;5026536;28;20505;-71
2022/07/18 07:20:50;;;;;;;0.40;0.30;;;21.80;76.60;;;;;;5024160;28;20392;-70
2022/07/18 07:23:16;;;;;;;0.40;0.30;;;22.00;76.20;;;;;;5007507;28;20393;-72
2022/07/18 07:25:43;;;;;;;0.40;0.20;;;22.10;76.00;;;;;;5006905;28;20397;-72
2022/07/18 07:28:08;;;;;;;0.40;0.30;;;22.20;75.40;;;;;;5007687;28;20495;-71
2022/07/18 07:30:35;;;;;;;0.80;0.70;;;22.20;74.70;;;;;;5026032;28;20522;-71
2022/07/18 07:33:02;;;;;;;0.40;0.28;;;22.30;75.80;;;;;;5027456;28;20372;-71
2022/07/18 07:35:28;;;;;;;0.40;0.30;;;22.40;75.80;;;;;;5026643;28;20490;-70
2022/07/18 07:37:57;;;;;;;0.40;0.30;;;22.60;75.40;;;;;;5012944;28;20553;-71
2022/07/18 07:40:24;;;;;;;0.40;0.30;;;22.60;74.10;;;;;;5006962;28;20495;-71
2022/07/18 07:42:51;;;;;;;0.60;0.60;;;22.80;73.60;;;;;;5007596;28;20389;-71
2022/07/18 07:45:18;;;;;;;0.40;0.25;;;22.70;72.50;;;;;;5014813;28;20398;-72
2022/07/18 07:47:44;;;;;;;0.40;0.20;;;22.80;73.10;;;;;;5017461;28;20413;-72
2022/07/18 07:50:11;;;;;;;0.40;0.20;;;22.90;73.30;;;;;;5006185;28;20402;-71
2022/07/18 07:52:38;;;;;;;0.40;0.20;;;23.00;73.50;;;;;;5012969;28;20391;-71
2022/07/18 07:55:07;;;;;;;0.40;0.30;;;23.10;72.70;;;;;;5021856;28;20396;-71
2022/07/18 07:57:35;;;;;;;0.50;0.40;;;23.30;71.80;;;;;;5029491;28;20505;-71
2022/07/18 08:00:03;;;;;;;0.40;0.30;;;23.30;70.20;;;;;;5030019;28;20882;-72
2022/07/18 08:02:29;;;;;;;0.40;0.30;;;23.40;71.00;;;;;;5028294;28;20391;-71
2022/07/18 08:04:54;;;;;;;0.50;0.40;;;23.30;69.60;;;;;;5010512;28;20888;-72
2022/07/18 08:07:20;;;;;;;0.40;0.20;;;23.40;69.20;;;;;;5020097;28;20483;-68
2022/07/18 08:09:46;;;;;;;0.80;0.80;;;23.60;67.80;;;;;;5035857;28;20456;-68
2022/07/18 08:12:12;;;;;;;0.47;0.35;;;23.70;67.10;;;;;;5028783;28;20965;-70
2022/07/18 08:14:40;;;;;;;0.60;0.60;;;23.80;66.40;;;;;;5038091;28;20658;-71
2022/07/18 08:17:06;;;;;;;0.40;0.20;;;23.60;66.50;;;;;;5028753;28;20383;-72
2022/07/18 08:19:31;;;;;;;0.40;0.30;;;23.70;66.10;;;;;;5020358;28;20419;-72
2022/07/18 08:21:57;;;;;;;0.40;0.30;;;23.80;66.00;;;;;;4989024;28;20417;-72
2022/07/18 08:24:23;;;;;;;0.40;0.30;;;23.90;67.80;;;;;;5027707;28;20558;-72
2022/07/18 08:26:48;;;;;;;0.40;0.30;;;23.90;65.50;;;;;;5029708;28;20398;-71
2022/07/18 08:29:14;;;;;;;0.40;0.28;;;23.90;64.10;;;;;;5030143;28;20891;-71
2022/07/18 08:31:40;;;;;;;0.40;0.30;;;24.10;62.70;;;;;;5030859;28;20399;-71
2022/07/18 08:34:06;;;;;;;0.40;0.20;;;24.20;62.80;;;;;;5009154;28;20761;-71
2022/07/18 08:36:31;;;;;;;0.40;0.20;;;24.40;62.20;;;;;;5016763;28;20445;-71
2022/07/18 08:38:57;;;;;;;0.40;0.30;;;24.40;61.00;;;;;;5022697;28;20440;-71
2022/07/18 08:41:24;;;;;;;0.50;0.40;;;24.30;61.50;;;;;;5023207;28;20412;-72
2022/07/18 08:43:49;;;;;;;0.40;0.30;;;24.30;62.50;;;;;;5027661;28;20395;-72
2022/07/18 08:46:18;;;;;;;0.40;0.20;;;24.40;61.50;;;;;;5031656;28;20415;-72
2022/07/18 08:48:44;;;;;;;0.40;0.20;;;24.50;60.20;;;;;;5020820;28;21376;-70
2022/07/18 08:51:10;;;;;;;0.40;0.30;;;24.70;60.10;;;;;;5026326;28;20530;-68
2022/07/18 08:53:37;;;;;;;0.80;0.80;;;24.80;60.50;;;;;;5018692;28;20412;-70
2022/07/18 08:56:04;;;;;;;0.40;0.30;;;24.80;61.70;;;;;;5006942;28;20412;-70
2022/07/18 08:58:30;;;;;;;0.40;0.30;;;25.00;61.70;;;;;;5015465;28;20487;-70
2022/07/18 09:00:58;;;;;;;0.40;0.30;;;25.10;61.20;;;;;;5006956;28;20539;-70
2022/07/18 09:03:24;;;;;;;0.40;0.30;;;25.10;61.70;;;;;;5016635;28;20411;-70
2022/07/18 09:06:07;;;;;;;0.40;0.20;;;25.10;61.70;;;;;;5021206;28;20473;-70
2022/07/18 09:08:33;;;;;;;0.40;0.20;;;25.10;60.60;;;;;;5024776;28;20874;-70
2022/07/18 09:11:01;;;;;;;0.40;0.20;;;25.20;61.40;;;;;;5020461;28;20482;-69
2022/07/18 09:13:33;;;;;;;0.40;0.30;;;25.20;61.30;;;;;;5011327;28;20404;-71
2022/07/18 09:16:11;;;;;;;0.50;0.40;;;25.30;60.10;;;;;;5008510;28;20393;-70
2022/07/18 09:18:42;;;;;;;0.40;0.20;;;25.20;59.50;;;;;;5007760;28;20408;-71
2022/07/18 09:21:11;;;;;;;0.40;0.30;;;25.40;59.80;;;;;;5008575;28;20826;-70
2022/07/18 09:23:41;;;;;;;0.50;0.40;;;25.40;59.90;;;;;;5017927;28;20476;-71
2022/07/18 09:26:09;;;;;;;0.40;0.20;;;25.60;59.60;;;;;;5022369;28;20410;-71
2022/07/18 09:28:51;;;;;;;0.40;0.30;;;25.50;59.70;;;;;;5025565;28;20613;-72
2022/07/18 09:31:26;;;;;;;0.40;0.20;;;25.60;60.70;;;;;;5024630;28;20401;-71
2022/07/18 09:33:57;;;;;;;0.90;0.70;;;25.80;59.80;;;;;;5015659;28;20400;-71
2022/07/18 09:36:23;;;;;;;1.00;0.60;;;25.90;58.70;;;;;;5027218;28;20379;-72
2022/07/18 09:38:49;;;;;;;0.40;0.22;;;26.10;58.50;;;;;;5028005;28;20398;-68
2022/07/18 09:41:15;;;;;;;0.50;0.50;;;26.00;57.20;;;;;;5008609;28;20399;-70
2022/07/18 09:43:41;;;;;;;0.40;0.20;;;25.80;57.60;;;;;;5015342;28;20395;-71
2022/07/18 09:46:07;;;;;;;0.40;0.20;;;26.10;57.10;;;;;;4999951;28;20391;-69
2022/07/18 09:48:33;;;;;;;0.40;0.30;;;26.10;57.50;;;;;;5011283;28;20411;-70
2022/07/18 09:51:01;;;;;;;0.40;0.20;;;26.40;57.00;;;;;;5017571;28;20390;-71
2022/07/18 09:53:29;;;;;;;0.40;0.30;;;26.50;56.10;;;;;;5018493;28;20399;-71
2022/07/18 09:55:56;;;;;;;0.40;0.20;;;26.60;55.90;;;;;;5021645;28;20404;-71
2022/07/18 09:58:24;;;;;;;0.40;0.20;;;26.50;55.90;;;;;;5015817;28;20420;-71
2022/07/18 10:00:52;;;;;;;0.40;0.30;;;26.50;54.90;;;;;;5017995;28;20387;-68
2022/07/18 10:03:19;;;;;;;0.40;0.30;;;26.50;54.40;;;;;;5015786;28;20395;-70
2022/07/18 10:05:48;;;;;;;0.40;0.20;;;26.80;54.40;;;;;;5014745;28;21285;-69
2022/07/18 10:08:16;;;;;;;0.40;0.30;;;26.90;53.10;;;;;;5016525;28;20476;-69
2022/07/18 10:10:44;;;;;;;0.40;0.32;;;26.90;52.50;;;;;;5015895;28;20394;-70
2022/07/18 10:13:11;;;;;;;0.40;0.30;;;27.10;52.30;;;;;;5015715;28;20394;-68
2022/07/18 10:15:40;;;;;;;0.40;0.30;;;27.10;52.40;;;;;;5017117;28;20431;-69
2022/07/18 10:18:10;;;;;;;0.40;0.20;;;27.20;52.00;;;;;;5015729;28;20766;-70
2022/07/18 10:20:41;;;;;;;0.40;0.20;;;27.20;52.00;;;;;;5017486;28;20925;-70
2022/07/18 10:23:08;;;;;;;0.40;0.28;;;27.30;51.10;;;;;;5016276;28;20396;-71
2022/07/18 10:25:35;;;;;;;1.00;0.60;;;27.50;51.10;;;;;;5016044;28;20398;-70
2022/07/18 10:28:12;;;;;;;0.40;0.20;;;27.50;51.40;;;;;;5019784;28;20426;-70
2022/07/18 10:30:49;;;;;;;0.40;0.20;;;27.60;50.20;;;;;;5017546;28;20548;-68
2022/07/18 10:33:38;;;;;;;0.40;0.20;;;27.60;50.30;;;;;;5015617;28;20399;-68
2022/07/18 10:36:09;;;;;;;0.40;0.30;;;27.80;50.90;;;;;;5019182;28;20403;-71
2022/07/18 10:38:35;;;;;;;0.40;0.20;;;28.00;51.10;;;;;;5020526;28;20410;-70
2022/07/18 10:41:09;;;;;;;0.40;0.30;;;28.00;51.10;;;;;;5020905;28;20998;-71
2022/07/18 10:43:38;;;;;;;0.40;0.30;;;28.00;50.90;;;;;;5001399;28;20404;-71
2022/07/18 10:46:05;;;;;;;0.40;0.30;;;28.00;52.00;;;;;;5024102;28;20399;-71
2022/07/18 10:48:33;;;;;;;0.40;0.20;;;28.30;50.80;;;;;;5024447;28;20775;-71
2022/07/18 10:51:07;;;;;;;0.40;0.20;;;28.40;49.70;;;;;;5021712;28;20502;-69
2022/07/18 10:53:54;;;;;;;0.40;0.30;;;28.50;49.20;;;;;;5017882;28;20409;-70
2022/07/18 10:56:40;;;;;;;0.40;0.20;;;28.50;48.50;;;;;;5010549;28;20498;-65
2022/07/18 10:59:20;;;;;;;0.40;0.30;;;28.70;46.90;;;;;;4995553;28;20927;-68
2022/07/18 11:01:53;;;;;;;0.40;0.30;;;28.80;46.90;;;;;;5015823;28;20407;-68
2022/07/18 11:04:26;;;;;;;0.40;0.20;;;29.00;46.50;;;;;;5015599;28;20411;-70
2022/07/18 11:07:06;;;;;;;0.40;0.20;;;29.00;46.30;;;;;;5006786;28;20389;-70
2022/07/18 11:09:43;;;;;;;0.40;0.30;;;29.10;45.20;;;;;;5023264;28;20411;-71
2022/07/18 11:12:19;;;;;;;0.40;0.30;;;29.00;47.00;;;;;;5019905;28;20508;-69
2022/07/18 11:15:04;;;;;;;0.40;0.28;;;29.40;44.80;;;;;;5008287;28;20466;-69
2022/07/18 11:17:51;;;;;;;0.40;0.20;;;29.50;43.90;;;;;;5026607;28;20402;-70
2022/07/18 11:20:38;;;;;;;0.50;0.50;;;29.50;44.20;;;;;;5020994;28;20875;-71
2022/07/18 11:23:15;;;;;;;0.40;0.28;;;29.60;44.80;;;;;;5028003;28;20496;-72
2022/07/18 11:25:41;;;;;;;0.40;0.30;;;29.70;45.80;;;;;;5018942;28;20944;-70
2022/07/18 11:28:09;;;;;;;0.40;0.30;;;29.80;45.20;;;;;;5010837;28;21069;-71
2022/07/18 11:30:35;;;;;;;0.40;0.20;;;30.20;45.50;;;;;;5009902;28;20392;-70
2022/07/18 11:33:01;;;;;;;0.40;0.20;;;30.30;44.50;;;;;;5011029;28;20782;-69
2022/07/18 11:35:26;;;;;;;0.40;0.30;;;30.50;44.00;;;;;;5012658;28;20389;-67
2022/07/18 11:37:53;;;;;;;0.40;0.20;;;30.50;43.30;;;;;;5021854;28;20394;-67
2022/07/18 11:40:19;;;;;;;0.40;0.30;;;30.30;42.90;;;;;;5017159;28;20469;-70
2022/07/18 11:42:46;;;;;;;0.40;0.30;;;30.70;43.80;;;;;;5025700;28;20395;-72
2022/07/18 11:45:15;;;;;;;0.40;0.20;;;31.10;42.20;;;;;;5027037;28;20393;-72
2022/07/18 11:47:49;;;;;;;0.40;0.20;;;31.60;41.70;;;;;;5029081;28;20457;-72
2022/07/18 11:50:17;;;;;;;0.40;0.20;;;32.00;40.30;;;;;;5035403;28;20498;-68
2022/07/18 11:52:44;;;;;;;0.40;0.20;;;32.80;39.50;;;;;;5036944;28;20395;-72
2022/07/18 11:55:13;;;;;;;0.40;0.30;;;33.40;39.20;;;;;;5029287;28;20403;-72
2022/07/18 11:57:39;;;;;;;0.40;0.20;;;32.90;37.20;;;;;;5025468;28;20806;-70
2022/07/18 12:00:19;;;;;;;0.40;0.20;;;33.40;36.70;;;;;;5024170;28;20403;-71
2022/07/18 12:03:09;;;;;;;0.40;0.20;;;33.60;38.10;;;;;;5028723;28;20402;-69
2022/07/18 12:05:42;;;;;;;0.40;0.30;;;33.50;35.30;;;;;;5025841;28;20465;-74
2022/07/18 12:08:29;;;;;;;0.40;0.20;;;32.70;36.30;;;;;;5022940;28;20413;-71
2022/07/18 12:11:07;;;;;;;0.40;0.40;;;33.80;36.20;;;;;;5020587;28;20430;-70
2022/07/18 12:13:43;;;;;;;0.40;0.20;;;33.90;34.80;;;;;;5026298;28;20631;-74
2022/07/18 12:16:30;;;;;;;0.40;0.20;;;34.80;33.30;;;;;;5017581;28;20552;-68
2022/07/18 12:19:14;;;;;;;0.40;0.20;;;33.90;33.90;;;;;;5026733;28;20411;-71
2022/07/18 12:21:57;;;;;;;0.40;0.20;;;33.50;33.70;;;;;;5021249;28;20425;-70
2022/07/18 12:24:36;;;;;;;0.40;0.20;;;33.80;33.70;;;;;;5025029;28;20383;-71
2022/07/18 12:27:18;;;;;;;0.40;0.20;;;34.60;35.60;;;;;;5024852;28;20535;-72
2022/07/18 12:30:02;;;;;;;0.40;0.20;;;34.70;32.50;;;;;;5027006;28;20411;-72
2022/07/18 12:32:30;;;;;;;0.40;0.20;;;34.50;32.30;;;;;;5027247;28;20773;-71
2022/07/18 12:35:07;;;;;;;0.40;0.20;;;34.60;32.80;;;;;;5028390;28;20435;-71
2022/07/18 12:37:33;;;;;;;0.40;0.20;;;34.80;32.60;;;;;;5026308;28;20410;-73
2022/07/18 12:40:03;;;;;;;0.40;0.20;;;34.90;32.40;;;;;;5017662;28;20437;-71
2022/07/18 12:42:37;;;;;;;0.40;0.20;;;35.00;33.80;;;;;;5020359;28;20768;-72
2022/07/18 12:45:04;;;;;;;0.40;0.20;;;33.90;33.40;;;;;;5006779;28;20815;-70
2022/07/18 12:47:31;;;;;;;0.40;0.20;;;34.60;33.50;;;;;;5023998;28;20421;-68
2022/07/18 12:49:57;;;;;;;0.40;0.20;;;35.20;31.60;;;;;;5017810;28;20454;-70
2022/07/18 12:52:23;;;;;;;0.40;0.20;;;34.80;31.60;;;;;;5022218;28;20442;-73
2022/07/18 12:54:49;;;;;;;0.40;0.20;;;34.50;32.00;;;;;;5023714;28;20427;-73